Time;durP1;ratioP1;P1;durP2;ratioP2;P2;SDS_P1;SDS_P2;PMS_P1;PMS_P2;Temp;Humidity;BMP_temperature;BMP_pressure;BME280_temperature;BME280_humidity;BME280_pressure;Samples;Min_cycle;Max_cycle;Signal;HPM_P1;HPM_P2
2021/05/07 00:02:25;;;;;;;7.20;4.10;;;;;;;11.61;95.69;97132.47;4856620;29;20050;-76
2021/05/07 00:04:50;;;;;;;9.07;4.78;;;;;;;11.71;96.79;97151.44;4835677;29;20037;-77
2021/05/07 00:07:16;;;;;;;5.72;4.00;;;;;;;11.87;94.98;97170.81;4850216;29;20147;-77
2021/05/07 00:09:42;;;;;;;5.75;3.90;;;;;;;11.76;94.25;97151.97;4843902;29;20113;-76
2021/05/07 00:12:08;;;;;;;7.43;4.10;;;;;;;11.70;93.86;97161.31;4866609;29;20482;-77
2021/05/07 00:14:34;;;;;;;7.57;4.15;;;;;;;11.64;94.18;97147.47;4866246;29;20052;-76
2021/05/07 00:17:00;;;;;;;31.90;4.70;;;;;;;11.55;95.31;97132.06;4853337;29;20037;-76
2021/05/07 00:19:25;;;;;;;11.57;4.80;;;;;;;11.64;95.20;97155.50;4870763;29;20044;-77
2021/05/07 00:21:51;;;;;;;11.35;4.70;;;;;;;11.63;95.44;97146.59;4860033;29;20110;-77
2021/05/07 00:24:17;;;;;;;10.82;4.20;;;;;;;11.53;95.16;97140.22;4862207;29;20029;-77
2021/05/07 00:26:42;;;;;;;7.10;4.40;;;;;;;11.50;95.86;97142.25;4856006;29;20386;-76
2021/05/07 00:29:08;;;;;;;6.13;4.15;;;;;;;11.47;96.27;97123.72;4858420;29;20029;-76
2021/05/07 00:31:33;;;;;;;8.48;4.35;;;;;;;11.53;96.72;97131.31;4846901;29;20099;-77
2021/05/07 00:33:59;;;;;;;5.78;4.15;;;;;;;11.43;96.59;97131.13;4863480;29;20029;-76
2021/05/07 00:36:24;;;;;;;9.30;4.03;;;;;;;11.41;97.58;97125.88;4852193;29;20095;-77
2021/05/07 00:38:50;;;;;;;8.13;4.38;;;;;;;11.31;98.01;97135.53;4856352;29;20025;-77
2021/05/07 00:41:16;;;;;;;10.10;4.97;;;;;;;11.33;97.83;97136.28;4848188;29;20498;-76
2021/05/07 00:43:41;;;;;;;10.05;4.47;;;;;;;11.23;96.55;97137.91;4872263;29;20036;-77
2021/05/07 00:46:07;;;;;;;11.68;4.75;;;;;;;11.24;96.14;97133.41;4864939;29;20036;-76
2021/05/07 00:48:33;;;;;;;9.02;4.70;;;;;;;11.09;95.59;97138.03;4861959;29;20097;-77
2021/05/07 00:50:59;;;;;;;18.70;5.35;;;;;;;11.01;97.18;97140.41;4871380;29;20028;-76
2021/05/07 00:53:28;;;;;;;8.35;4.65;;;;;;;10.84;97.96;97143.38;4876022;29;20079;-76
2021/05/07 00:55:53;;;;;;;11.32;5.10;;;;;;;10.77;98.85;97140.28;4873252;29;20058;-76
2021/05/07 00:58:20;;;;;;;8.23;4.93;;;;;;;10.87;97.81;97140.50;4871396;29;20482;-76
2021/05/07 01:00:48;;;;;;;11.05;4.32;;;;;;;10.80;99.39;97141.88;4873785;29;20116;-76
2021/05/07 01:03:14;;;;;;;11.02;4.32;;;;;;;10.77;99.48;97140.28;4853768;29;20068;-76
2021/05/07 01:05:39;;;;;;;9.18;4.90;;;;;;;10.71;100.00;97145.19;4878349;29;20067;-76
2021/05/07 01:08:05;;;;;;;16.90;5.70;;;;;;;10.68;100.00;97140.03;4871794;29;20116;-76
2021/05/07 01:10:30;;;;;;;8.60;4.82;;;;;;;10.76;99.83;97138.59;4857403;29;20064;-77
2021/05/07 01:12:56;;;;;;;7.68;5.10;;;;;;;10.63;100.00;97137.72;4863832;29;20039;-76
2021/05/07 01:15:25;;;;;;;13.23;4.75;;;;;;;10.74;99.99;97139.63;4882397;29;20053;-76
2021/05/07 01:17:53;;;;;;;7.00;4.78;;;;;;;10.71;100.00;97130.00;4855976;29;20033;-77
2021/05/07 01:20:30;;;;;;;10.85;5.57;;;;;;;10.60;100.00;97139.72;4877699;29;20504;-76
2021/05/07 01:22:57;;;;;;;12.90;6.10;;;;;;;10.49;100.00;97128.91;4870231;29;20037;-77
2021/05/07 01:25:25;;;;;;;9.43;5.03;;;;;;;10.51;100.00;97124.31;4865171;29;20512;-76
2021/05/07 01:27:55;;;;;;;9.25;5.20;;;;;;;10.54;100.00;97127.63;4855489;29;20461;-76
2021/05/07 01:30:23;;;;;;;14.90;4.93;;;;;;;10.57;100.00;97124.75;4857265;29;20137;-76
2021/05/07 01:32:50;;;;;;;6.18;4.57;;;;;;;10.54;100.00;97124.97;4888267;29;20054;-76
2021/05/07 01:35:24;;;;;;;10.02;4.78;;;;;;;10.53;100.00;97107.19;4880701;29;20033;-76
2021/05/07 01:37:51;;;;;;;7.78;4.95;;;;;;;10.53;100.00;97109.88;4889570;29;20512;-76
2021/05/07 01:40:28;;;;;;;10.85;5.32;;;;;;;10.52;100.00;97107.31;4858764;29;20453;-76
2021/05/07 01:42:54;;;;;;;13.80;5.75;;;;;;;10.59;100.00;97119.28;4872291;29;20497;-76
2021/05/07 01:45:24;;;;;;;8.50;5.95;;;;;;;10.48;100.00;97111.16;4880459;29;20028;-77
2021/05/07 01:47:50;;;;;;;13.75;5.63;;;;;;;10.53;100.00;97125.91;4858327;29;20497;-76
2021/05/07 01:50:22;;;;;;;9.63;5.43;;;;;;;10.49;100.00;97118.22;4859137;29;20115;-75
2021/05/07 01:52:48;;;;;;;11.38;5.38;;;;;;;10.51;100.00;97111.81;4879344;29;20033;-76
2021/05/07 01:55:17;;;;;;;8.90;5.60;;;;;;;10.49;100.00;97113.72;4873929;29;20390;-75
2021/05/07 01:57:42;;;;;;;7.18;5.18;;;;;;;10.48;100.00;97117.38;4864446;29;20390;-77
2021/05/07 02:00:10;;;;;;;12.52;5.43;;;;;;;10.37;100.00;97116.38;4858277;29;20043;-76
2021/05/07 02:02:36;;;;;;;12.10;6.05;;;;;;;10.43;100.00;97126.66;4874558;29;20037;-76
2021/05/07 02:05:04;;;;;;;7.47;5.63;;;;;;;10.38;100.00;97124.28;4854005;29;20116;-76
2021/05/07 02:07:29;;;;;;;11.80;6.45;;;;;;;10.43;100.00;97107.94;4870998;29;20092;-76
2021/05/07 02:09:55;;;;;;;12.48;5.38;;;;;;;10.36;100.00;97109.31;4872184;29;20033;-76
2021/05/07 02:12:21;;;;;;;8.20;5.20;;;;;;;10.46;100.00;97119.25;4869766;29;20025;-76
2021/05/07 02:14:46;;;;;;;8.70;5.70;;;;;;;10.44;100.00;97113.19;4848707;29;20532;-76
2021/05/07 02:17:12;;;;;;;9.35;5.45;;;;;;;10.48;100.00;97121.84;4877047;29;20036;-76
2021/05/07 02:19:37;;;;;;;9.90;5.78;;;;;;;10.54;100.00;97113.41;4893779;29;20029;-76
2021/05/07 02:22:03;;;;;;;13.23;5.57;;;;;;;10.49;100.00;97112.88;4864247;29;20461;-75
2021/05/07 02:24:29;;;;;;;11.77;6.07;;;;;;;10.42;100.00;97101.75;4863597;29;20024;-77
2021/05/07 02:26:55;;;;;;;11.50;5.13;;;;;;;10.39;100.00;97111.78;4873632;29;20037;-75
2021/05/07 02:29:20;;;;;;;11.30;5.53;;;;;;;10.42;100.00;97107.09;4858748;29;20036;-75
2021/05/07 02:31:46;;;;;;;10.85;5.40;;;;;;;10.40;100.00;97111.66;4854661;29;20020;-76
2021/05/07 02:34:12;;;;;;;13.05;5.53;;;;;;;10.39;100.00;97112.66;4841388;29;20032;-75
2021/05/07 02:36:39;;;;;;;16.30;5.15;;;;;;;10.43;100.00;97124.81;4865711;29;20032;-75
2021/05/07 02:39:06;;;;;;;16.63;5.32;;;;;;;10.37;100.00;97108.38;4850072;29;20037;-74
2021/05/07 02:41:32;;;;;;;16.88;6.00;;;;;;;10.48;100.00;97116.50;4853681;29;20033;-77
2021/05/07 02:43:58;;;;;;;9.10;5.55;;;;;;;10.46;100.00;97121.94;4869931;29;20040;-77
2021/05/07 02:46:23;;;;;;;11.50;6.47;;;;;;;10.53;100.00;97125.06;4858944;29;20481;-77
2021/05/07 02:48:49;;;;;;;10.45;5.45;;;;;;;10.41;100.00;97109.84;4879765;29;20056;-75
2021/05/07 02:51:15;;;;;;;10.05;5.50;;;;;;;10.41;100.00;97132.09;4868941;29;20033;-76
2021/05/07 02:53:40;;;;;;;9.55;5.93;;;;;;;10.38;100.00;97123.44;4874933;29;20115;-75
2021/05/07 02:56:06;;;;;;;9.23;6.20;;;;;;;10.34;100.00;97133.47;4866689;29;20564;-76
2021/05/07 02:58:31;;;;;;;9.85;5.82;;;;;;;10.32;100.00;97133.59;4859165;29;20039;-76
2021/05/07 03:00:57;;;;;;;14.82;5.90;;;;;;;10.34;100.00;97142.34;4855883;29;20394;-76
2021/05/07 03:03:23;;;;;;;12.48;5.43;;;;;;;10.24;100.00;97137.75;4876850;29;20029;-74
2021/05/07 03:05:48;;;;;;;10.52;5.70;;;;;;;10.16;100.00;97148.06;4871128;29;20061;-75
2021/05/07 03:08:21;;;;;;;13.90;5.63;;;;;;;10.01;100.00;97133.88;4855040;29;20033;-75
2021/05/07 03:10:46;;;;;;;11.65;5.05;;;;;;;9.99;100.00;97143.84;4894223;29;20529;-75
2021/05/07 03:13:12;;;;;;;19.52;6.07;;;;;;;10.06;100.00;97146.97;4880748;29;20029;-74
2021/05/07 03:15:37;;;;;;;6.75;5.10;;;;;;;10.00;100.00;97153.53;4858455;29;20063;-74
2021/05/07 03:18:03;;;;;;;10.93;5.43;;;;;;;9.97;100.00;97164.44;4855189;29;20067;-76
2021/05/07 03:20:29;;;;;;;10.27;5.82;;;;;;;9.97;100.00;97161.75;4869358;29;20036;-74
2021/05/07 03:22:54;;;;;;;11.48;5.90;;;;;;;9.92;100.00;97166.56;4870400;29;20043;-75
2021/05/07 03:25:20;;;;;;;11.10;5.60;;;;;;;9.89;100.00;97168.56;4855115;29;20110;-75
2021/05/07 03:27:45;;;;;;;13.52;5.43;;;;;;;9.83;100.00;97167.16;4879660;29;20040;-76
2021/05/07 03:30:12;;;;;;;12.50;5.18;;;;;;;9.89;100.00;97172.09;4869496;29;20041;-76
2021/05/07 03:32:38;;;;;;;9.73;5.65;;;;;;;10.04;100.00;97179.09;4874330;29;20050;-76
2021/05/07 03:35:05;;;;;;;10.05;5.18;;;;;;;10.04;100.00;97172.91;4872063;29;20589;-83
2021/05/07 03:37:30;;;;;;;11.73;5.80;;;;;;;10.13;100.00;97178.53;4883479;29;20028;-77
2021/05/07 03:39:56;;;;;;;15.43;5.65;;;;;;;10.19;100.00;97174.59;4851806;29;20119;-77
2021/05/07 03:42:21;;;;;;;12.40;6.93;;;;;;;10.22;100.00;97169.03;4864639;29;20029;-77
2021/05/07 03:44:47;;;;;;;11.40;4.95;;;;;;;10.29;100.00;97181.91;4880099;29;20040;-76
2021/05/07 03:47:12;;;;;;;14.02;5.72;;;;;;;10.40;100.00;97178.50;4864758;29;20036;-76
2021/05/07 03:49:38;;;;;;;12.02;5.63;;;;;;;10.37;100.00;97176.03;4860303;29;20040;-77
2021/05/07 03:52:04;;;;;;;12.63;6.13;;;;;;;10.45;100.00;97176.41;4856327;29;20044;-78
2021/05/07 03:54:30;;;;;;;9.15;5.82;;;;;;;10.49;100.00;97177.06;4881934;29;20025;-76
2021/05/07 03:56:55;;;;;;;12.98;6.53;;;;;;;10.43;100.00;97164.94;4880415;29;20028;-75
2021/05/07 03:59:21;;;;;;;9.45;5.50;;;;;;;10.64;100.00;97168.00;4856863;29;20036;-76
2021/05/07 04:01:47;;;;;;;17.83;5.70;;;;;;;10.80;100.00;97187.34;4873569;29;20037;-75
2021/05/07 04:04:12;;;;;;;19.23;6.15;;;;;;;10.77;100.00;97176.84;4864407;29;20501;-74
2021/05/07 04:06:38;;;;;;;20.27;6.00;;;;;;;10.94;99.89;97184.59;4880191;29;20029;-75
2021/05/07 04:09:10;;;;;;;12.73;5.72;;;;;;;11.04;99.54;97163.41;4874275;29;20124;-78
2021/05/07 04:11:55;;;;;;;9.93;5.72;;;;;;;11.18;98.78;97166.81;4863227;29;20079;-77
2021/05/07 04:14:21;;;;;;;8.65;6.10;;;;;;;11.38;98.38;97176.13;4850956;29;20072;-75
2021/05/07 04:16:47;;;;;;;11.55;5.38;;;;;;;11.54;96.10;97167.84;4870836;29;20493;-78
2021/05/07 04:19:12;;;;;;;7.53;5.28;;;;;;;12.01;94.52;97176.00;4864392;29;20021;-80
2021/05/07 04:21:38;;;;;;;14.13;6.78;;;;;;;13.01;89.00;97171.03;4845826;29;20034;-76
2021/05/07 04:24:04;;;;;;;10.52;5.80;;;;;;;14.16;81.33;97175.19;4850062;29;20036;-77
2021/05/07 04:26:30;;;;;;;25.77;5.65;;;;;;;14.95;77.11;97192.78;4844467;29;20481;-75
2021/05/07 04:28:55;;;;;;;9.30;5.47;;;;;;;14.91;76.38;97188.63;4831386;29;20025;-75
2021/05/07 04:31:21;;;;;;;25.23;7.63;;;;;;;14.48;78.77;97191.41;4831233;29;20041;-74
2021/05/07 04:33:46;;;;;;;13.65;5.65;;;;;;;14.25;79.42;97193.25;4846538;29;20036;-74
2021/05/07 04:36:12;;;;;;;14.10;5.93;;;;;;;14.10;80.49;97202.59;4844247;29;20086;-73
2021/05/07 04:38:37;;;;;;;17.90;7.00;;;;;;;13.78;81.94;97201.66;4868818;29;20102;-73
2021/05/07 04:41:04;;;;;;;16.00;6.60;;;;;;;13.83;81.79;97204.81;4831648;29;20038;-74
2021/05/07 04:43:29;;;;;;;24.63;6.88;;;;;;;13.99;81.66;97216.06;4876480;29;20025;-74
2021/05/07 04:45:55;;;;;;;20.08;8.85;;;;;;;13.92;82.20;97206.75;4861937;29;20063;-73
2021/05/07 04:48:20;;;;;;;49.40;9.10;;;;;;;14.04;81.79;97213.84;4854201;29;20070;-74
2021/05/07 04:50:46;;;;;;;40.00;7.70;;;;;;;14.17;81.86;97217.25;4858475;29;20123;-74
2021/05/07 04:53:12;;;;;;;27.60;8.60;;;;;;;14.22;80.49;97204.25;4832726;29;20402;-75
2021/05/07 04:55:38;;;;;;;25.05;11.07;;;;;;;14.36;80.27;97209.41;4830080;29;20026;-74
2021/05/07 04:58:03;;;;;;;18.40;7.75;;;;;;;14.48;80.43;97204.84;4844769;29;20079;-75
2021/05/07 05:00:29;;;;;;;18.92;10.20;;;;;;;14.56;79.13;97199.66;4848366;29;20417;-75
2021/05/07 05:02:55;;;;;;;18.77;7.95;;;;;;;14.67;78.36;97201.47;4840735;29;20036;-75
2021/05/07 05:05:20;;;;;;;17.45;7.38;;;;;;;14.81;78.61;97187.69;4831602;29;20056;-74
2021/05/07 05:07:55;;;;;;;24.15;8.32;;;;;;;15.07;77.53;97194.44;4829957;29;20029;-75
2021/05/07 05:10:21;;;;;;;25.10;7.32;;;;;;;15.27;75.68;97188.16;4862234;29;20040;-75
2021/05/07 05:12:47;;;;;;;23.67;6.72;;;;;;;15.81;74.35;97181.66;4860963;29;20409;-75
2021/05/07 05:15:13;;;;;;;21.27;6.28;;;;;;;16.49;71.21;97192.47;4850500;29;20056;-73
2021/05/07 05:17:39;;;;;;;21.63;5.72;;;;;;;17.07;68.60;97196.06;4897797;29;20092;-75
2021/05/07 05:20:06;;;;;;;18.60;7.65;;;;;;;18.53;64.01;97207.16;4867671;29;20493;-76
2021/05/07 05:22:31;;;;;;;32.03;14.32;;;;;;;20.24;56.81;97199.34;4880976;29;20552;-74
2021/05/07 05:24:57;;;;;;;62.97;24.77;;;;;;;22.28;50.26;97211.03;4876475;29;20116;-74
2021/05/07 05:27:24;;;;;;;14.50;4.85;;;;;;;23.84;46.19;97217.91;4864606;29;20458;-74
2021/05/07 05:29:49;;;;;;;51.70;25.63;;;;;;;25.35;42.44;97209.00;4858908;29;20037;-74
2021/05/07 05:32:15;;;;;;;9.93;4.55;;;;;;;26.24;40.63;97215.72;4874388;29;20043;-75
2021/05/07 05:34:41;;;;;;;23.98;7.25;;;;;;;26.75;39.33;97228.03;4870964;29;20530;-75
2021/05/07 05:37:06;;;;;;;13.82;4.53;;;;;;;27.65;37.53;97226.88;4880032;29;20061;-75
2021/05/07 05:39:32;;;;;;;14.13;4.75;;;;;;;28.29;34.96;97225.22;4862974;29;20036;-75
2021/05/07 05:41:58;;;;;;;25.63;13.02;;;;;;;28.66;34.49;97222.81;4879841;29;20545;-75
2021/05/07 05:44:24;;;;;;;20.38;9.80;;;;;;;28.63;34.38;97220.47;4871100;29;20029;-74
2021/05/07 05:46:49;;;;;;;9.10;4.80;;;;;;;28.85;34.19;97221.91;4869727;29;20037;-74
2021/05/07 05:49:15;;;;;;;27.42;10.27;;;;;;;29.44;33.23;97208.69;4855184;29;20127;-76
2021/05/07 05:51:40;;;;;;;15.57;4.28;;;;;;;30.01;31.68;97221.47;4881328;29;20021;-75
2021/05/07 05:54:07;;;;;;;14.80;3.60;;;;;;;29.09;33.24;97207.41;4867646;29;20051;-75
2021/05/07 05:56:33;;;;;;;8.73;3.60;;;;;;;28.82;33.45;97206.69;4880081;29;20032;-75
2021/05/07 05:58:58;;;;;;;10.43;3.45;;;;;;;29.09;32.87;97203.78;4876016;29;20033;-75
2021/05/07 06:01:24;;;;;;;5.18;3.15;;;;;;;29.41;32.05;97203.63;4878051;29;20052;-75
2021/05/07 06:03:49;;;;;;;21.67;9.70;;;;;;;29.41;32.18;97202.81;4847316;29;20037;-74
2021/05/07 06:06:15;;;;;;;15.15;4.07;;;;;;;30.58;31.44;97208.41;4877474;29;20485;-75
2021/05/07 06:08:41;;;;;;;8.77;4.35;;;;;;;30.81;30.52;97210.47;4881311;29;20029;-75
2021/05/07 06:11:06;;;;;;;4.35;3.50;;;;;;;31.08;29.42;97206.34;4860607;29;20396;-74
2021/05/07 06:13:32;;;;;;;8.18;2.72;;;;;;;30.10;29.17;97203.56;4863853;29;20037;-74
2021/05/07 06:15:57;;;;;;;7.18;3.10;;;;;;;28.43;29.69;97192.97;4876924;29;20033;-75
2021/05/07 06:18:23;;;;;;;4.35;2.65;;;;;;;28.24;29.73;97197.47;4870714;29;20089;-75
2021/05/07 06:20:49;;;;;;;6.63;2.60;;;;;;;27.67;31.39;97191.78;4854533;29;20121;-75
2021/05/07 06:23:14;;;;;;;6.10;2.33;;;;;;;27.22;30.93;97186.00;4877107;29;20037;-74
2021/05/07 06:25:40;;;;;;;5.13;2.30;;;;;;;27.40;31.02;97191.72;4873302;29;20028;-74
2021/05/07 06:28:05;;;;;;;5.10;2.17;;;;;;;27.82;31.20;97189.66;4857926;29;20112;-74
2021/05/07 06:30:31;;;;;;;3.15;2.03;;;;;;;27.70;29.95;97172.09;4881003;29;20079;-75
2021/05/07 06:32:56;;;;;;;4.80;2.10;;;;;;;27.89;30.27;97176.75;4865654;29;20028;-76
2021/05/07 06:35:22;;;;;;;2.67;1.90;;;;;;;27.91;29.69;97171.88;4873382;29;20096;-75
2021/05/07 06:37:50;;;;;;;7.97;2.50;;;;;;;27.36;31.22;97184.09;4869993;29;20029;-74
2021/05/07 06:40:16;;;;;;;9.50;2.45;;;;;;;27.69;31.38;97174.00;4846858;29;20028;-75
2021/05/07 06:42:42;;;;;;;10.93;2.15;;;;;;;27.71;29.71;97176.56;4877701;29;20101;-76
2021/05/07 06:45:11;;;;;;;8.50;2.72;;;;;;;27.94;30.98;97193.47;4862307;29;20033;-76
2021/05/07 06:47:37;;;;;;;5.28;2.25;;;;;;;29.30;28.43;97182.28;4862043;29;20371;-76
2021/05/07 06:50:04;;;;;;;6.18;2.25;;;;;;;29.39;28.48;97183.72;4846836;29;20044;-76
2021/05/07 06:52:31;;;;;;;3.65;2.30;;;;;;;29.39;27.11;97167.19;4870321;29;20028;-76
2021/05/07 06:54:56;;;;;;;9.90;2.70;;;;;;;30.00;28.36;97183.03;4853667;29;20071;-74
2021/05/07 06:57:22;;;;;;;4.95;2.28;;;;;;;29.80;26.92;97168.56;4853235;29;20064;-74
2021/05/07 06:59:48;;;;;;;16.90;9.05;;;;;;;29.62;28.37;97174.88;4872713;29;20088;-75
2021/05/07 07:02:15;;;;;;;4.53;2.17;;;;;;;29.98;27.77;97176.94;4872797;29;20032;-75
2021/05/07 07:04:41;;;;;;;4.20;2.30;;;;;;;30.67;26.55;97175.81;4849206;29;20528;-76
2021/05/07 07:07:07;;;;;;;5.65;2.50;;;;;;;30.85;27.05;97176.66;4864785;29;20032;-75
2021/05/07 07:09:32;;;;;;;4.70;2.22;;;;;;;31.58;26.07;97180.13;4864268;29;20493;-76
2021/05/07 07:11:58;;;;;;;6.97;2.10;;;;;;;31.19;26.00;97172.41;4881954;29;20028;-75
2021/05/07 07:14:23;;;;;;;4.57;2.00;;;;;;;31.43;25.43;97168.66;4865410;29;20056;-77
2021/05/07 07:16:49;;;;;;;3.72;1.98;;;;;;;31.95;24.84;97169.75;4879312;29;20029;-75
2021/05/07 07:19:14;;;;;;;10.43;7.18;;;;;;;33.70;23.46;97165.56;4866785;29;20402;-74
2021/05/07 07:21:40;;;;;;;4.18;2.22;;;;;;;34.38;22.42;97169.19;4861350;29;20521;-75
2021/05/07 07:24:06;;;;;;;4.95;2.30;;;;;;;33.60;22.33;97148.72;4858258;29;20401;-75
2021/05/07 07:26:31;;;;;;;7.53;2.55;;;;;;;33.66;23.18;97157.97;4856432;29;20500;-75
2021/05/07 07:28:57;;;;;;;9.27;3.40;;;;;;;34.40;22.29;97167.84;4885660;29;20025;-75
2021/05/07 07:31:22;;;;;;;11.60;2.38;;;;;;;34.83;21.98;97173.50;4892404;29;20025;-75
2021/05/07 07:33:48;;;;;;;8.00;2.90;;;;;;;34.18;21.97;97170.56;4869829;29;20112;-75
2021/05/07 07:36:14;;;;;;;10.30;2.20;;;;;;;35.13;21.01;97163.91;4863547;29;20112;-75
2021/05/07 07:38:40;;;;;;;3.38;2.08;;;;;;;34.74;21.75;97165.84;4878881;29;20394;-76
2021/05/07 07:41:05;;;;;;;3.47;1.92;;;;;;;34.31;21.08;97156.34;4845800;29;20033;-75
2021/05/07 07:43:31;;;;;;;4.03;2.30;;;;;;;34.47;21.03;97160.19;4845733;29;20029;-75
2021/05/07 07:45:57;;;;;;;6.40;2.22;;;;;;;34.28;21.38;97158.78;4863751;29;20032;-75
2021/05/07 07:48:22;;;;;;;2.20;1.95;;;;;;;35.04;20.35;97157.09;4857892;29;20037;-73
2021/05/07 07:50:48;;;;;;;4.03;2.35;;;;;;;36.09;21.44;97146.25;4862666;29;20040;-74
2021/05/07 07:53:13;;;;;;;3.35;2.05;;;;;;;36.13;20.14;97149.34;4867210;29;20025;-74
2021/05/07 07:55:39;;;;;;;2.83;1.80;;;;;;;34.92;20.78;97139.69;4885175;29;20029;-74
2021/05/07 07:58:04;;;;;;;3.47;2.00;;;;;;;34.68;20.97;97126.03;4845538;29;20033;-74
2021/05/07 08:00:30;;;;;;;8.60;1.98;;;;;;;35.25;20.16;97136.78;4861080;29;20046;-74
2021/05/07 08:02:56;;;;;;;5.90;2.08;;;;;;;36.22;19.69;97131.03;4845203;29;20417;-73
2021/05/07 08:05:22;;;;;;;9.98;2.30;;;;;;;36.47;19.55;97127.56;4860839;29;20063;-78
2021/05/07 08:07:47;;;;;;;7.68;2.40;;;;;;;35.20;20.65;97129.19;4846540;29;20120;-73
2021/05/07 08:10:15;;;;;;;8.43;2.67;;;;;;;34.23;21.77;97122.59;4878789;29;20029;-77
2021/05/07 08:12:42;;;;;;;7.97;3.10;;;;;;;34.52;21.89;97124.09;4863346;29;20020;-74
2021/05/07 08:15:08;;;;;;;6.88;2.65;;;;;;;35.28;21.14;97111.22;4848860;29;20505;-74
2021/05/07 08:17:33;;;;;;;5.53;2.50;;;;;;;35.36;19.89;97121.88;4849202;29;20112;-74
2021/05/07 08:19:59;;;;;;;6.72;2.80;;;;;;;35.03;20.83;97102.56;4863241;29;20119;-74
2021/05/07 08:22:25;;;;;;;9.40;3.17;;;;;;;35.87;20.80;97112.91;4850319;29;20092;-74
2021/05/07 08:24:50;;;;;;;8.82;2.70;;;;;;;35.82;20.69;97115.66;4861712;29;20039;-74
2021/05/07 08:27:16;;;;;;;15.93;2.95;;;;;;;37.19;19.52;97113.75;4877531;29;20029;-75
2021/05/07 08:29:41;;;;;;;8.05;2.60;;;;;;;36.94;19.06;97109.72;4863774;29;20463;-75
2021/05/07 08:32:07;;;;;;;23.00;4.47;;;;;;;39.17;17.82;97112.47;4875895;29;20052;-75
2021/05/07 08:34:33;;;;;;;6.97;3.33;;;;;;;38.85;18.31;97105.38;4868703;29;20089;-75
2021/05/07 08:36:59;;;;;;;8.48;2.70;;;;;;;37.61;18.19;97094.00;4870401;29;20032;-75
2021/05/07 08:39:24;;;;;;;3.80;2.97;;;;;;;37.50;18.32;97084.81;4850983;29;20105;-76
2021/05/07 08:41:50;;;;;;;14.27;2.67;;;;;;;38.57;17.47;97083.63;4860360;29;20116;-75
2021/05/07 08:44:16;;;;;;;5.72;1.90;;;;;;;38.78;17.21;97090.81;4872468;29;20040;-75
2021/05/07 08:46:43;;;;;;;4.47;2.38;;;;;;;38.95;16.78;97071.72;4879031;29;20511;-75
2021/05/07 08:49:10;;;;;;;14.10;3.28;;;;;;;37.95;19.39;97073.66;4879299;29;20029;-75
2021/05/07 08:51:36;;;;;;;5.00;2.33;;;;;;;36.83;19.48;97082.88;4849737;29;20378;-76
2021/05/07 08:54:02;;;;;;;11.05;2.40;;;;;;;35.88;19.11;97063.63;4852645;29;20520;-75
2021/05/07 08:56:28;;;;;;;116.53;7.72;;;;;;;35.90;19.74;97069.78;4866090;29;20068;-76
2021/05/07 08:58:53;;;;;;;5.22;2.00;;;;;;;35.35;19.64;97042.25;4854685;29;20062;-76
2021/05/07 09:01:19;;;;;;;5.28;1.98;;;;;;;35.92;18.92;97061.97;4877503;29;20509;-74
2021/05/07 09:03:47;;;;;;;4.85;2.50;;;;;;;35.79;19.81;97049.34;4860499;29;20036;-75
2021/05/07 09:06:16;;;;;;;14.77;2.80;;;;;;;36.53;19.67;97066.03;4856072;29;20025;-75
2021/05/07 09:08:42;;;;;;;6.63;2.70;;;;;;;36.11;19.47;97056.84;4878888;29;20048;-75
2021/05/07 09:11:07;;;;;;;7.43;2.58;;;;;;;36.00;19.89;97049.47;4863226;29;20036;-75
2021/05/07 09:13:33;;;;;;;11.43;1.92;;;;;;;35.90;18.27;97051.09;4873016;29;20056;-75
2021/05/07 09:16:07;;;;;;;8.95;3.13;;;;;;;35.86;18.93;97057.47;4859966;29;20048;-76
2021/05/07 09:18:44;;;;;;;4.05;1.77;;;;;;;35.77;18.54;97043.22;4860592;29;20040;-76
2021/05/07 09:21:11;;;;;;;15.25;10.85;;;;;;;35.06;19.52;97046.41;4861252;29;20089;-75
2021/05/07 09:23:41;;;;;;;6.47;2.20;;;;;;;35.33;18.86;97036.13;4848155;29;20124;-75
2021/05/07 09:26:07;;;;;;;6.70;1.95;;;;;;;34.88;19.21;97028.16;4880941;29;20501;-75
2021/05/07 09:28:33;;;;;;;2.47;1.90;;;;;;;34.00;19.82;97025.56;4866667;29;20025;-75
2021/05/07 09:31:13;;;;;;;14.40;3.00;;;;;;;33.72;21.58;97024.59;4865505;29;20521;-76
2021/05/07 09:33:43;;;;;;;6.00;1.80;;;;;;;33.59;21.75;97029.66;4863599;29;20041;-76
2021/05/07 09:36:09;;;;;;;7.05;2.85;;;;;;;33.26;22.45;97030.47;4863289;29;20394;-76
2021/05/07 09:38:35;;;;;;;11.95;2.17;;;;;;;32.98;22.41;97027.72;4861068;29;20038;-75
2021/05/07 09:41:01;;;;;;;5.47;2.15;;;;;;;33.16;21.99;97030.31;4850681;29;20044;-75
2021/05/07 09:43:30;;;;;;;7.13;2.15;;;;;;;34.92;19.08;97029.28;4869841;29;20096;-75
2021/05/07 09:45:58;;;;;;;4.25;2.10;;;;;;;35.48;18.22;97019.56;4863423;29;20481;-76
2021/05/07 09:48:25;;;;;;;4.88;2.10;;;;;;;35.57;18.07;97009.66;4891393;29;20053;-74
2021/05/07 09:50:58;;;;;;;14.85;2.53;;;;;;;35.09;18.60;97001.41;4855352;29;20510;-75
2021/05/07 09:53:25;;;;;;;2.95;1.65;;;;;;;35.76;18.96;96990.56;4847489;29;20029;-77
2021/05/07 09:55:59;;;;;;;4.25;1.63;;;;;;;37.48;16.86;96983.72;4863151;29;20401;-75
2021/05/07 09:58:24;;;;;;;4.07;2.00;;;;;;;38.34;16.94;96984.41;4863831;29;20060;-75
2021/05/07 10:00:50;;;;;;;4.22;1.83;;;;;;;38.18;17.19;96977.19;4866760;29;20036;-76
2021/05/07 10:03:15;;;;;;;7.50;2.20;;;;;;;37.54;16.41;96979.81;4880264;29;20029;-76
2021/05/07 10:05:41;;;;;;;9.98;2.22;;;;;;;36.03;17.41;96955.09;4881497;29;20045;-76
2021/05/07 10:08:07;;;;;;;30.05;16.65;;;;;;;35.55;18.46;96964.50;4881206;29;20481;-76
2021/05/07 10:10:38;;;;;;;15.73;4.32;;;;;;;35.09;19.00;96965.25;4853812;29;20055;-76
2021/05/07 10:13:06;;;;;;;10.00;3.10;;;;;;;34.15;19.89;96973.03;4848517;29;20547;-75
2021/05/07 10:15:37;;;;;;;6.63;1.80;;;;;;;33.44;20.07;96963.63;4865723;29;20052;-75
2021/05/07 10:18:04;;;;;;;14.20;2.30;;;;;;;33.81;18.51;96960.34;4850420;29;20044;-77
2021/05/07 10:21:01;;;;;;;10.95;2.25;;;;;;;32.08;19.70;96948.09;4876786;29;20126;-75
2021/05/07 10:23:27;;;;;;;5.07;1.90;;;;;;;31.00;20.93;96933.94;4863827;29;20482;-75
2021/05/07 10:26:05;;;;;;;56.70;34.30;;;;;;;31.81;21.33;96960.72;4893661;29;20044;-75
2021/05/07 10:28:43;;;;;;;13.00;2.05;;;;;;;32.50;19.02;96951.41;4896841;29;20064;-74
2021/05/07 10:31:10;;;;;;;2.42;1.42;;;;;;;33.25;18.64;96942.84;4888532;29;20471;-75
2021/05/07 10:33:36;;;;;;;5.30;1.98;;;;;;;33.37;18.33;96940.81;4858641;29;20412;-76
2021/05/07 10:36:01;;;;;;;8.85;1.67;;;;;;;33.52;17.83;96941.03;4893071;29;20037;-75
2021/05/07 10:38:27;;;;;;;14.25;2.33;;;;;;;35.77;19.32;96945.78;4854437;29;20032;-75
2021/05/07 10:41:22;;;;;;;5.43;1.55;;;;;;;36.21;15.83;96923.19;4862353;29;20032;-75
2021/05/07 10:43:48;;;;;;;5.97;2.40;;;;;;;37.61;17.18;96932.91;4854060;29;20041;-76
2021/05/07 10:46:20;;;;;;;3.80;1.63;;;;;;;39.37;14.58;96947.22;4886836;29;20100;-76
2021/05/07 10:48:59;;;;;;;4.65;1.88;;;;;;;38.54;13.90;96908.00;4867270;29;20051;-76
2021/05/07 10:51:27;;;;;;;4.43;1.55;;;;;;;37.69;14.31;96921.13;4872680;29;20056;-74
2021/05/07 10:54:06;;;;;;;7.28;1.80;;;;;;;36.53;14.77;96914.66;4851313;29;20498;-75
2021/05/07 10:56:37;;;;;;;9.20;1.60;;;;;;;36.08;15.37;96913.38;4862672;29;20088;-76
2021/05/07 10:59:17;;;;;;;24.42;2.83;;;;;;;36.68;15.50;96906.31;4846634;29;20044;-80
2021/05/07 11:02:03;;;;;;;7.63;1.70;;;;;;;36.04;16.60;96911.34;4870657;29;20453;-80
2021/05/07 11:04:49;;;;;;;4.63;1.60;;;;;;;34.95;16.27;96886.13;4872777;29;20458;-77
2021/05/07 11:07:29;;;;;;;8.65;1.67;;;;;;;33.25;17.14;96904.00;4855446;29;20071;-77
2021/05/07 11:10:12;;;;;;;2.05;1.60;;;;;;;34.03;17.16;96900.09;4853988;29;20517;-76
2021/05/07 11:12:42;;;;;;;3.60;1.67;;;;;;;33.92;17.22;96907.47;4828297;29;20559;-76
2021/05/07 11:15:17;;;;;;;5.95;1.55;;;;;;;32.85;18.24;96895.84;4890869;29;20048;-75
2021/05/07 11:17:44;;;;;;;13.77;1.40;;;;;;;32.20;19.08;96900.97;4846646;29;20516;-76
2021/05/07 11:20:10;;;;;;;6.07;1.42;;;;;;;32.83;17.63;96899.94;4869762;29;20060;-77
2021/05/07 11:22:39;;;;;;;3.80;1.38;;;;;;;34.01;17.35;96893.97;4872781;29;20437;-76
2021/05/07 11:25:05;;;;;;;8.05;1.60;;;;;;;34.62;16.18;96890.81;4850416;29;20476;-76
2021/05/07 11:27:31;;;;;;;2.30;1.20;;;;;;;35.76;15.75;96893.97;4864559;29;20079;-76